sensor_id;sensor_type;location;lat;lon;timestamp;temperature;humidity
7598;DHT22;3840;59.32098800;18.06423600;2024-03-06T00:01:52;-0.70;99.90
7598;DHT22;3840;59.32098800;18.06423600;2024-03-06T00:04:18;-0.70;99.90
7598;DHT22;3840;59.32098800;18.06423600;2024-03-06T00:06:43;-0.80;99.90
7598;DHT22;3840;59.32098800;18.06423600;2024-03-06T00:09:09;-0.70;99.90
7598;DHT22;3840;59.32098800;18.06423600;2024-03-06T00:11:35;-0.80;99.90
7598;DHT22;3840;59.32098800;18.06423600;2024-03-06T00:14:03;-0.80;99.90
7598;DHT22;3840;59.32098800;18.06423600;2024-03-06T00:16:31;-0.80;99.90
7598;DHT22;3840;59.32098800;18.06423600;2024-03-06T00:18:57;-0.80;99.90
7598;DHT22;3840;59.32098800;18.06423600;2024-03-06T00:21:23;-0.90;99.90
7598;DHT22;3840;59.32098800;18.06423600;2024-03-06T00:23:48;-0.90;99.90
7598;DHT22;3840;59.32098800;18.06423600;2024-03-06T00:26:14;-0.70;99.90
7598;DHT22;3840;59.32098800;18.06423600;2024-03-06T00:28:40;-0.90;99.90
7598;DHT22;3840;59.32098800;18.06423600;2024-03-06T00:31:06;-0.90;99.90
7598;DHT22;3840;59.32098800;18.06423600;2024-03-06T00:33:31;-0.90;99.90
7598;DHT22;3840;59.32098800;18.06423600;2024-03-06T00:35:57;-0.90;99.90
7598;DHT22;3840;59.32098800;18.06423600;2024-03-06T00:38:23;-1.00;99.90
7598;DHT22;3840;59.32098800;18.06423600;2024-03-06T00:40:49;-0.10;99.90
7598;DHT22;3840;59.32098800;18.06423600;2024-03-06T00:43:14;-1.00;99.90
7598;DHT22;3840;59.32098800;18.06423600;2024-03-06T00:45:40;-1.00;99.90
7598;DHT22;3840;59.32098800;18.06423600;2024-03-06T00:48:06;-1.00;99.90
7598;DHT22;3840;59.32098800;18.06423600;2024-03-06T00:50:32;-1.00;99.90
7598;DHT22;3840;59.32098800;18.06423600;2024-03-06T00:52:58;-1.00;99.90
7598;DHT22;3840;59.32098800;18.06423600;2024-03-06T00:55:23;-1.00;99.90
7598;DHT22;3840;59.32098800;18.06423600;2024-03-06T00:57:49;-1.00;99.90
7598;DHT22;3840;59.32098800;18.06423600;2024-03-06T01:00:15;-0.90;99.90
7598;DHT22;3840;59.32098800;18.06423600;2024-03-06T01:02:41;-1.00;99.90
7598;DHT22;3840;59.32098800;18.06423600;2024-03-06T01:05:07;-1.00;99.90
7598;DHT22;3840;59.32098800;18.06423600;2024-03-06T01:07:36;-1.00;99.90
7598;DHT22;3840;59.32098800;18.06423600;2024-03-06T01:10:03;-1.00;99.90
7598;DHT22;3840;59.32098800;18.06423600;2024-03-06T01:12:29;-1.00;99.90
7598;DHT22;3840;59.32098800;18.06423600;2024-03-06T01:14:55;-1.00;99.90
7598;DHT22;3840;59.32098800;18.06423600;2024-03-06T01:17:21;0.40;99.90
7598;DHT22;3840;59.32098800;18.06423600;2024-03-06T01:19:46;-0.60;99.90
7598;DHT22;3840;59.32098800;18.06423600;2024-03-06T01:22:12;-1.00;99.90
7598;DHT22;3840;59.32098800;18.06423600;2024-03-06T01:24:40;-1.00;99.90
7598;DHT22;3840;59.32098800;18.06423600;2024-03-06T01:27:06;-1.00;99.90
7598;DHT22;3840;59.32098800;18.06423600;2024-03-06T01:29:32;-1.00;99.90
7598;DHT22;3840;59.32098800;18.06423600;2024-03-06T01:31:58;-0.10;99.90
7598;DHT22;3840;59.32098800;18.06423600;2024-03-06T01:34:25;-1.10;99.90
7598;DHT22;3840;59.32098800;18.06423600;2024-03-06T01:36:55;-1.10;99.90
7598;DHT22;3840;59.32098800;18.06423600;2024-03-06T01:39:21;-1.10;99.90
7598;DHT22;3840;59.32098800;18.06423600;2024-03-06T01:41:47;-1.10;99.90
7598;DHT22;3840;59.32098800;18.06423600;2024-03-06T01:44:14;-1.10;99.90
7598;DHT22;3840;59.32098800;18.06423600;2024-03-06T01:46:40;-1.10;99.90
7598;DHT22;3840;59.32098800;18.06423600;2024-03-06T01:49:07;-1.10;99.90
7598;DHT22;3840;59.32098800;18.06423600;2024-03-06T01:51:33;-0.70;99.90
7598;DHT22;3840;59.32098800;18.06423600;2024-03-06T01:54:01;-1.20;99.90
7598;DHT22;3840;59.32098800;18.06423600;2024-03-06T01:56:30;-0.90;99.90
7598;DHT22;3840;59.32098800;18.06423600;2024-03-06T01:58:57;-1.20;99.90
7598;DHT22;3840;59.32098800;18.06423600;2024-03-06T02:01:23;-1.10;99.90
7598;DHT22;3840;59.32098800;18.06423600;2024-03-06T02:03:49;-0.10;99.90
7598;DHT22;3840;59.32098800;18.06423600;2024-03-06T02:06:17;-1.20;99.90
7598;DHT22;3840;59.32098800;18.06423600;2024-03-06T02:08:48;-1.20;99.90
7598;DHT22;3840;59.32098800;18.06423600;2024-03-06T02:11:14;-1.30;99.90
7598;DHT22;3840;59.32098800;18.06423600;2024-03-06T02:13:41;-1.10;99.90
7598;DHT22;3840;59.32098800;18.06423600;2024-03-06T02:16:07;-1.30;99.90
7598;DHT22;3840;59.32098800;18.06423600;2024-03-06T02:18:33;0.00;99.90
7598;DHT22;3840;59.32098800;18.06423600;2024-03-06T02:20:59;-1.30;99.90
7598;DHT22;3840;59.32098800;18.06423600;2024-03-06T02:23:24;-1.30;99.90
7598;DHT22;3840;59.32098800;18.06423600;2024-03-06T02:25:50;-1.40;99.90
7598;DHT22;3840;59.32098800;18.06423600;2024-03-06T02:28:16;-1.50;99.90
7598;DHT22;3840;59.32098800;18.06423600;2024-03-06T02:30:43;-1.30;99.90
7598;DHT22;3840;59.32098800;18.06423600;2024-03-06T02:33:09;0.00;99.90
7598;DHT22;3840;59.32098800;18.06423600;2024-03-06T02:35:35;-1.20;99.90
7598;DHT22;3840;59.32098800;18.06423600;2024-03-06T02:38:03;-1.40;99.90
7598;DHT22;3840;59.32098800;18.06423600;2024-03-06T02:40:30;-1.40;99.90
7598;DHT22;3840;59.32098800;18.06423600;2024-03-06T02:42:56;-1.50;99.90
7598;DHT22;3840;59.32098800;18.06423600;2024-03-06T02:45:22;-1.50;99.90
7598;DHT22;3840;59.32098800;18.06423600;2024-03-06T02:47:48;-1.50;99.90
7598;DHT22;3840;59.32098800;18.06423600;2024-03-06T02:50:13;0.10;99.90
7598;DHT22;3840;59.32098800;18.06423600;2024-03-06T02:52:39;-1.50;99.90
7598;DHT22;3840;59.32098800;18.06423600;2024-03-06T02:55:05;-1.50;99.90
7598;DHT22;3840;59.32098800;18.06423600;2024-03-06T02:57:31;-1.50;99.90
7598;DHT22;3840;59.32098800;18.06423600;2024-03-06T02:59:57;-0.20;99.90
7598;DHT22;3840;59.32098800;18.06423600;2024-03-06T03:02:23;-1.30;99.90
7598;DHT22;3840;59.32098800;18.06423600;2024-03-06T03:04:52;-1.60;99.90
7598;DHT22;3840;59.32098800;18.06423600;2024-03-06T03:07:18;-1.60;99.90
7598;DHT22;3840;59.32098800;18.06423600;2024-03-06T03:09:47;-1.60;99.90
7598;DHT22;3840;59.32098800;18.06423600;2024-03-06T03:12:13;-1.60;99.90
7598;DHT22;3840;59.32098800;18.06423600;2024-03-06T03:14:42;-1.40;99.90
7598;DHT22;3840;59.32098800;18.06423600;2024-03-06T03:17:08;-1.50;99.90
7598;DHT22;3840;59.32098800;18.06423600;2024-03-06T03:19:34;-1.70;99.90
7598;DHT22;3840;59.32098800;18.06423600;2024-03-06T03:22:00;-1.70;99.90
7598;DHT22;3840;59.32098800;18.06423600;2024-03-06T03:24:29;-1.70;99.90
7598;DHT22;3840;59.32098800;18.06423600;2024-03-06T03:26:56;-1.70;99.90
7598;DHT22;3840;59.32098800;18.06423600;2024-03-06T03:29:21;-1.70;99.90
7598;DHT22;3840;59.32098800;18.06423600;2024-03-06T03:31:47;-1.70;99.90
7598;DHT22;3840;59.32098800;18.06423600;2024-03-06T03:34:13;-0.10;99.90
7598;DHT22;3840;59.32098800;18.06423600;2024-03-06T03:36:43;-1.70;99.90
7598;DHT22;3840;59.32098800;18.06423600;2024-03-06T03:39:12;-1.70;99.90
7598;DHT22;3840;59.32098800;18.06423600;2024-03-06T03:41:45;-1.70;99.90
7598;DHT22;3840;59.32098800;18.06423600;2024-03-06T03:44:14;-1.70;99.90
7598;DHT22;3840;59.32098800;18.06423600;2024-03-06T03:46:40;-1.60;99.90
7598;DHT22;3840;59.32098800;18.06423600;2024-03-06T03:49:06;-0.20;99.90
7598;DHT22;3840;59.32098800;18.06423600;2024-03-06T03:51:32;-1.70;99.90
7598;DHT22;3840;59.32098800;18.06423600;2024-03-06T03:53:58;-1.70;99.90
7598;DHT22;3840;59.32098800;18.06423600;2024-03-06T03:56:23;-1.70;99.90
7598;DHT22;3840;59.32098800;18.06423600;2024-03-06T03:58:49;-1.60;99.90
7598;DHT22;3840;59.32098800;18.06423600;2024-03-06T04:01:15;-1.60;99.90
7598;DHT22;3840;59.32098800;18.06423600;2024-03-06T04:03:40;-1.60;99.90
7598;DHT22;3840;59.32098800;18.06423600;2024-03-06T04:06:08;-1.60;99.90
7598;DHT22;3840;59.32098800;18.06423600;2024-03-06T04:08:34;-1.60;99.90
7598;DHT22;3840;59.32098800;18.06423600;2024-03-06T04:10:59;-1.50;99.90
7598;DHT22;3840;59.32098800;18.06423600;2024-03-06T04:13:25;-1.60;99.90
7598;DHT22;3840;59.32098800;18.06423600;2024-03-06T04:15:51;-1.50;99.90
7598;DHT22;3840;59.32098800;18.06423600;2024-03-06T04:18:17;-1.50;99.90
7598;DHT22;3840;59.32098800;18.06423600;2024-03-06T04:20:43;0.00;99.90
7598;DHT22;3840;59.32098800;18.06423600;2024-03-06T04:23:09;-1.40;99.90
7598;DHT22;3840;59.32098800;18.06423600;2024-03-06T04:25:35;-0.20;99.90
7598;DHT22;3840;59.32098800;18.06423600;2024-03-06T04:28:01;-1.40;99.90
7598;DHT22;3840;59.32098800;18.06423600;2024-03-06T04:30:28;-1.30;99.90
7598;DHT22;3840;59.32098800;18.06423600;2024-03-06T04:32:53;-1.40;99.90
7598;DHT22;3840;59.32098800;18.06423600;2024-03-06T04:35:19;-1.10;99.90
7598;DHT22;3840;59.32098800;18.06423600;2024-03-06T04:37:45;-1.30;99.90
7598;DHT22;3840;59.32098800;18.06423600;2024-03-06T04:40:11;-1.30;99.90
7598;DHT22;3840;59.32098800;18.06423600;2024-03-06T04:42:37;-1.30;99.90
7598;DHT22;3840;59.32098800;18.06423600;2024-03-06T04:45:04;-1.20;99.90
7598;DHT22;3840;59.32098800;18.06423600;2024-03-06T04:47:30;-1.20;99.90
7598;DHT22;3840;59.32098800;18.06423600;2024-03-06T04:49:56;-1.20;99.90
7598;DHT22;3840;59.32098800;18.06423600;2024-03-06T04:52:23;0.10;99.90
7598;DHT22;3840;59.32098800;18.06423600;2024-03-06T04:54:49;-1.00;99.90
7598;DHT22;3840;59.32098800;18.06423600;2024-03-06T04:57:14;-1.10;99.90
7598;DHT22;3840;59.32098800;18.06423600;2024-03-06T04:59:40;-1.00;99.90
7598;DHT22;3840;59.32098800;18.06423600;2024-03-06T05:02:05;-1.00;99.90
7598;DHT22;3840;59.32098800;18.06423600;2024-03-06T05:04:31;-0.90;99.90
7598;DHT22;3840;59.32098800;18.06423600;2024-03-06T05:06:57;-1.00;99.90
7598;DHT22;3840;59.32098800;18.06423600;2024-03-06T05:09:23;-1.00;99.90
7598;DHT22;3840;59.32098800;18.06423600;2024-03-06T05:11:48;-1.00;99.90
7598;DHT22;3840;59.32098800;18.06423600;2024-03-06T05:14:16;-1.00;99.90
7598;DHT22;3840;59.32098800;18.06423600;2024-03-06T05:16:42;-0.90;99.90
7598;DHT22;3840;59.32098800;18.06423600;2024-03-06T05:19:09;-0.90;99.90
7598;DHT22;3840;59.32098800;18.06423600;2024-03-06T05:21:36;0.40;99.90
7598;DHT22;3840;59.32098800;18.06423600;2024-03-06T05:24:02;-0.80;99.90
7598;DHT22;3840;59.32098800;18.06423600;2024-03-06T05:26:28;-0.90;99.90
7598;DHT22;3840;59.32098800;18.06423600;2024-03-06T05:28:53;-1.00;99.90
7598;DHT22;3840;59.32098800;18.06423600;2024-03-06T05:31:20;-0.90;99.90
7598;DHT22;3840;59.32098800;18.06423600;2024-03-06T05:33:49;-0.80;99.90
7598;DHT22;3840;59.32098800;18.06423600;2024-03-06T05:36:17;-0.90;99.90
7598;DHT22;3840;59.32098800;18.06423600;2024-03-06T05:38:44;-0.90;99.90
7598;DHT22;3840;59.32098800;18.06423600;2024-03-06T05:41:10;-0.80;99.90
7598;DHT22;3840;59.32098800;18.06423600;2024-03-06T05:43:36;-0.80;99.90
7598;DHT22;3840;59.32098800;18.06423600;2024-03-06T05:46:02;-0.80;99.90
7598;DHT22;3840;59.32098800;18.06423600;2024-03-06T05:48:28;-0.70;99.90
7598;DHT22;3840;59.32098800;18.06423600;2024-03-06T05:50:53;-0.70;99.90
7598;DHT22;3840;59.32098800;18.06423600;2024-03-06T05:53:19;-0.70;99.90
7598;DHT22;3840;59.32098800;18.06423600;2024-03-06T05:55:45;-0.60;99.90
7598;DHT22;3840;59.32098800;18.06423600;2024-03-06T05:58:11;-0.60;99.90
7598;DHT22;3840;59.32098800;18.06423600;2024-03-06T06:00:37;0.80;99.90
7598;DHT22;3840;59.32098800;18.06423600;2024-03-06T06:03:03;-0.40;99.90
7598;DHT22;3840;59.32098800;18.06423600;2024-03-06T06:05:29;-0.50;99.90
7598;DHT22;3840;59.32098800;18.06423600;2024-03-06T06:07:55;-0.50;99.90
7598;DHT22;3840;59.32098800;18.06423600;2024-03-06T06:10:20;-0.20;99.90
7598;DHT22;3840;59.32098800;18.06423600;2024-03-06T06:12:46;-0.40;99.90
7598;DHT22;3840;59.32098800;18.06423600;2024-03-06T06:15:12;-0.40;99.90
7598;DHT22;3840;59.32098800;18.06423600;2024-03-06T06:17:37;-0.30;99.90
7598;DHT22;3840;59.32098800;18.06423600;2024-03-06T06:20:06;-0.30;99.90
7598;DHT22;3840;59.32098800;18.06423600;2024-03-06T06:22:36;-0.30;99.90
7598;DHT22;3840;59.32098800;18.06423600;2024-03-06T06:25:02;-0.30;99.90
7598;DHT22;3840;59.32098800;18.06423600;2024-03-06T06:27:29;-0.30;99.90
7598;DHT22;3840;59.32098800;18.06423600;2024-03-06T06:29:54;0.00;99.90
7598;DHT22;3840;59.32098800;18.06423600;2024-03-06T06:32:21;-0.20;99.90
7598;DHT22;3840;59.32098800;18.06423600;2024-03-06T06:34:46;-0.20;99.90
7598;DHT22;3840;59.32098800;18.06423600;2024-03-06T06:37:12;-0.20;99.90
7598;DHT22;3840;59.32098800;18.06423600;2024-03-06T06:39:38;0.00;99.90
7598;DHT22;3840;59.32098800;18.06423600;2024-03-06T06:42:04;-0.20;99.90
7598;DHT22;3840;59.32098800;18.06423600;2024-03-06T06:44:29;-0.20;99.90
7598;DHT22;3840;59.32098800;18.06423600;2024-03-06T06:46:55;-0.10;99.90
7598;DHT22;3840;59.32098800;18.06423600;2024-03-06T06:49:21;-0.10;99.90
7598;DHT22;3840;59.32098800;18.06423600;2024-03-06T06:51:47;-0.10;99.90
7598;DHT22;3840;59.32098800;18.06423600;2024-03-06T06:54:15;-0.10;99.90
7598;DHT22;3840;59.32098800;18.06423600;2024-03-06T06:56:42;-0.10;99.90
7598;DHT22;3840;59.32098800;18.06423600;2024-03-06T06:59:07;-0.10;99.90
7598;DHT22;3840;59.32098800;18.06423600;2024-03-06T07:01:33;-0.10;99.90
7598;DHT22;3840;59.32098800;18.06423600;2024-03-06T07:03:59;-0.10;99.90
7598;DHT22;3840;59.32098800;18.06423600;2024-03-06T07:06:24;0.00;99.90
7598;DHT22;3840;59.32098800;18.06423600;2024-03-06T07:08:50;1.30;99.90
7598;DHT22;3840;59.32098800;18.06423600;2024-03-06T07:11:17;0.00;99.90
7598;DHT22;3840;59.32098800;18.06423600;2024-03-06T07:13:43;0.00;99.90
7598;DHT22;3840;59.32098800;18.06423600;2024-03-06T07:16:09;0.10;99.90
7598;DHT22;3840;59.32098800;18.06423600;2024-03-06T07:18:35;0.20;99.90
7598;DHT22;3840;59.32098800;18.06423600;2024-03-06T07:21:00;0.10;99.90
7598;DHT22;3840;59.32098800;18.06423600;2024-03-06T07:23:26;0.10;99.90
7598;DHT22;3840;59.32098800;18.06423600;2024-03-06T07:25:52;0.10;99.90
7598;DHT22;3840;59.32098800;18.06423600;2024-03-06T07:28:18;1.00;99.90
7598;DHT22;3840;59.32098800;18.06423600;2024-03-06T07:30:44;0.20;99.90
7598;DHT22;3840;59.32098800;18.06423600;2024-03-06T07:33:10;0.30;99.90
7598;DHT22;3840;59.32098800;18.06423600;2024-03-06T07:35:35;0.30;99.90
7598;DHT22;3840;59.32098800;18.06423600;2024-03-06T07:38:02;0.30;99.90
7598;DHT22;3840;59.32098800;18.06423600;2024-03-06T07:40:30;0.30;99.90
7598;DHT22;3840;59.32098800;18.06423600;2024-03-06T07:42:57;0.40;99.90
7598;DHT22;3840;59.32098800;18.06423600;2024-03-06T07:45:22;0.50;99.90
7598;DHT22;3840;59.32098800;18.06423600;2024-03-06T07:47:48;0.60;99.90
7598;DHT22;3840;59.32098800;18.06423600;2024-03-06T07:50:14;0.60;99.90
7598;DHT22;3840;59.32098800;18.06423600;2024-03-06T07:52:45;0.50;99.90
7598;DHT22;3840;59.32098800;18.06423600;2024-03-06T07:55:11;0.40;99.90
7598;DHT22;3840;59.32098800;18.06423600;2024-03-06T07:57:37;0.50;99.90
7598;DHT22;3840;59.32098800;18.06423600;2024-03-06T08:00:03;0.60;99.90
7598;DHT22;3840;59.32098800;18.06423600;2024-03-06T08:02:43;0.50;99.90
7598;DHT22;3840;59.32098800;18.06423600;2024-03-06T08:05:11;0.50;99.90
7598;DHT22;3840;59.32098800;18.06423600;2024-03-06T08:07:40;0.50;99.90
7598;DHT22;3840;59.32098800;18.06423600;2024-03-06T08:10:10;0.50;99.90
7598;DHT22;3840;59.32098800;18.06423600;2024-03-06T08:12:42;0.50;99.90
7598;DHT22;3840;59.32098800;18.06423600;2024-03-06T08:15:10;0.40;99.90
7598;DHT22;3840;59.32098800;18.06423600;2024-03-06T08:17:42;0.50;99.90
7598;DHT22;3840;59.32098800;18.06423600;2024-03-06T08:20:09;0.60;99.90
7598;DHT22;3840;59.32098800;18.06423600;2024-03-06T08:22:36;0.70;99.90
7598;DHT22;3840;59.32098800;18.06423600;2024-03-06T08:25:13;0.80;99.90
7598;DHT22;3840;59.32098800;18.06423600;2024-03-06T08:27:40;0.60;99.90
7598;DHT22;3840;59.32098800;18.06423600;2024-03-06T08:30:07;0.50;99.90
7598;DHT22;3840;59.32098800;18.06423600;2024-03-06T08:32:34;0.60;99.90
7598;DHT22;3840;59.32098800;18.06423600;2024-03-06T08:35:04;0.60;99.90
7598;DHT22;3840;59.32098800;18.06423600;2024-03-06T08:37:37;0.60;99.90
7598;DHT22;3840;59.32098800;18.06423600;2024-03-06T08:40:02;0.60;99.90
7598;DHT22;3840;59.32098800;18.06423600;2024-03-06T08:42:29;0.60;99.90
7598;DHT22;3840;59.32098800;18.06423600;2024-03-06T08:44:54;0.60;99.90
7598;DHT22;3840;59.32098800;18.06423600;2024-03-06T08:47:20;0.70;99.90
7598;DHT22;3840;59.32098800;18.06423600;2024-03-06T08:49:46;0.70;99.90
7598;DHT22;3840;59.32098800;18.06423600;2024-03-06T08:52:12;0.80;99.90
7598;DHT22;3840;59.32098800;18.06423600;2024-03-06T08:54:38;1.10;99.90
7598;DHT22;3840;59.32098800;18.06423600;2024-03-06T08:57:07;1.00;99.90
7598;DHT22;3840;59.32098800;18.06423600;2024-03-06T08:59:36;0.90;99.90
7598;DHT22;3840;59.32098800;18.06423600;2024-03-06T09:02:17;1.00;99.90
7598;DHT22;3840;59.32098800;18.06423600;2024-03-06T09:04:44;0.90;99.90
7598;DHT22;3840;59.32098800;18.06423600;2024-03-06T09:07:10;1.40;99.90
7598;DHT22;3840;59.32098800;18.06423600;2024-03-06T09:09:36;1.20;99.90
7598;DHT22;3840;59.32098800;18.06423600;2024-03-06T09:12:05;1.20;99.90
7598;DHT22;3840;59.32098800;18.06423600;2024-03-06T09:14:34;1.30;99.90
7598;DHT22;3840;59.32098800;18.06423600;2024-03-06T09:17:00;1.40;99.90
7598;DHT22;3840;59.32098800;18.06423600;2024-03-06T09:19:26;1.50;99.90
7598;DHT22;3840;59.32098800;18.06423600;2024-03-06T09:21:52;2.60;99.90
7598;DHT22;3840;59.32098800;18.06423600;2024-03-06T09:24:19;1.60;99.90
7598;DHT22;3840;59.32098800;18.06423600;2024-03-06T09:26:45;1.60;99.90
7598;DHT22;3840;59.32098800;18.06423600;2024-03-06T09:29:12;1.60;99.90
7598;DHT22;3840;59.32098800;18.06423600;2024-03-06T09:31:38;1.70;99.90
7598;DHT22;3840;59.32098800;18.06423600;2024-03-06T09:34:03;1.80;99.90
7598;DHT22;3840;59.32098800;18.06423600;2024-03-06T09:36:29;1.80;99.90
7598;DHT22;3840;59.32098800;18.06423600;2024-03-06T09:38:55;1.80;99.90
7598;DHT22;3840;59.32098800;18.06423600;2024-03-06T09:41:22;1.90;99.90
7598;DHT22;3840;59.32098800;18.06423600;2024-03-06T09:43:47;1.90;99.90
7598;DHT22;3840;59.32098800;18.06423600;2024-03-06T09:46:14;1.90;99.90
7598;DHT22;3840;59.32098800;18.06423600;2024-03-06T09:48:49;2.10;99.90
7598;DHT22;3840;59.32098800;18.06423600;2024-03-06T09:51:17;2.10;99.90
7598;DHT22;3840;59.32098800;18.06423600;2024-03-06T09:53:42;2.30;99.90
7598;DHT22;3840;59.32098800;18.06423600;2024-03-06T09:56:15;2.20;99.90
7598;DHT22;3840;59.32098800;18.06423600;2024-03-06T09:58:41;2.40;99.90
7598;DHT22;3840;59.32098800;18.06423600;2024-03-06T10:01:07;2.40;99.90
7598;DHT22;3840;59.32098800;18.06423600;2024-03-06T10:03:33;2.60;99.90
7598;DHT22;3840;59.32098800;18.06423600;2024-03-06T10:06:00;2.40;99.90
7598;DHT22;3840;59.32098800;18.06423600;2024-03-06T10:08:25;2.60;99.90
7598;DHT22;3840;59.32098800;18.06423600;2024-03-06T10:10:52;2.70;99.90
7598;DHT22;3840;59.32098800;18.06423600;2024-03-06T10:13:18;2.60;99.90
7598;DHT22;3840;59.32098800;18.06423600;2024-03-06T10:16:00;2.60;99.90
7598;DHT22;3840;59.32098800;18.06423600;2024-03-06T10:18:28;2.60;99.90
7598;DHT22;3840;59.32098800;18.06423600;2024-03-06T10:20:54;2.60;99.90
7598;DHT22;3840;59.32098800;18.06423600;2024-03-06T10:23:20;2.60;99.90
7598;DHT22;3840;59.32098800;18.06423600;2024-03-06T10:25:50;2.40;99.90
7598;DHT22;3840;59.32098800;18.06423600;2024-03-06T10:28:20;2.70;99.90
7598;DHT22;3840;59.32098800;18.06423600;2024-03-06T10:30:46;2.40;99.90
7598;DHT22;3840;59.32098800;18.06423600;2024-03-06T10:33:13;2.60;99.90
7598;DHT22;3840;59.32098800;18.06423600;2024-03-06T10:35:41;2.60;99.90
7598;DHT22;3840;59.32098800;18.06423600;2024-03-06T10:38:07;2.60;99.90
7598;DHT22;3840;59.32098800;18.06423600;2024-03-06T10:40:38;2.40;99.90
7598;DHT22;3840;59.32098800;18.06423600;2024-03-06T10:43:06;2.10;99.90
7598;DHT22;3840;59.32098800;18.06423600;2024-03-06T10:45:35;2.40;99.90
7598;DHT22;3840;59.32098800;18.06423600;2024-03-06T10:48:05;2.40;99.90
7598;DHT22;3840;59.32098800;18.06423600;2024-03-06T10:50:32;2.40;99.90
7598;DHT22;3840;59.32098800;18.06423600;2024-03-06T10:52:59;2.50;99.90
7598;DHT22;3840;59.32098800;18.06423600;2024-03-06T10:55:26;3.20;99.90
7598;DHT22;3840;59.32098800;18.06423600;2024-03-06T10:57:53;2.20;99.90
7598;DHT22;3840;59.32098800;18.06423600;2024-03-06T11:00:20;2.10;99.90
7598;DHT22;3840;59.32098800;18.06423600;2024-03-06T11:02:47;2.30;99.90
7598;DHT22;3840;59.32098800;18.06423600;2024-03-06T11:05:16;2.30;99.90
7598;DHT22;3840;59.32098800;18.06423600;2024-03-06T11:07:42;2.20;99.90
7598;DHT22;3840;59.32098800;18.06423600;2024-03-06T11:10:09;2.10;99.90
7598;DHT22;3840;59.32098800;18.06423600;2024-03-06T11:12:42;2.90;99.90
7598;DHT22;3840;59.32098800;18.06423600;2024-03-06T11:15:14;2.80;99.90
7598;DHT22;3840;59.32098800;18.06423600;2024-03-06T11:17:41;3.30;99.90
7598;DHT22;3840;59.32098800;18.06423600;2024-03-06T11:20:17;2.30;99.90
7598;DHT22;3840;59.32098800;18.06423600;2024-03-06T11:30:58;2.50;99.90
7598;DHT22;3840;59.32098800;18.06423600;2024-03-06T11:33:33;2.50;99.90
7598;DHT22;3840;59.32098800;18.06423600;2024-03-06T11:36:22;2.50;99.90
7598;DHT22;3840;59.32098800;18.06423600;2024-03-06T11:39:02;2.60;99.90
7598;DHT22;3840;59.32098800;18.06423600;2024-03-06T11:44:22;2.50;99.90
7598;DHT22;3840;59.32098800;18.06423600;2024-03-06T11:49:21;2.50;99.90
7598;DHT22;3840;59.32098800;18.06423600;2024-03-06T11:51:48;2.60;99.90
7598;DHT22;3840;59.32098800;18.06423600;2024-03-06T11:54:14;2.80;99.90
7598;DHT22;3840;59.32098800;18.06423600;2024-03-06T11:56:40;2.60;99.90
7598;DHT22;3840;59.32098800;18.06423600;2024-03-06T11:59:07;2.60;99.90
7598;DHT22;3840;59.32098800;18.06423600;2024-03-06T12:01:33;2.60;99.90
7598;DHT22;3840;59.32098800;18.06423600;2024-03-06T12:04:00;2.60;99.90
7598;DHT22;3840;59.32098800;18.06423600;2024-03-06T12:06:27;3.40;99.90
7598;DHT22;3840;59.32098800;18.06423600;2024-03-06T12:08:53;3.20;99.90
7598;DHT22;3840;59.32098800;18.06423600;2024-03-06T12:11:19;2.70;99.90
7598;DHT22;3840;59.32098800;18.06423600;2024-03-06T12:13:48;2.60;99.90
7598;DHT22;3840;59.32098800;18.06423600;2024-03-06T12:16:14;2.60;99.90
7598;DHT22;3840;59.32098800;18.06423600;2024-03-06T12:18:40;2.70;99.90
7598;DHT22;3840;59.32098800;18.06423600;2024-03-06T12:21:05;2.60;99.90
7598;DHT22;3840;59.32098800;18.06423600;2024-03-06T12:23:31;2.60;99.90
7598;DHT22;3840;59.32098800;18.06423600;2024-03-06T12:26:08;2.80;99.90
7598;DHT22;3840;59.32098800;18.06423600;2024-03-06T12:28:36;2.70;99.90
7598;DHT22;3840;59.32098800;18.06423600;2024-03-06T12:31:03;2.70;99.90
7598;DHT22;3840;59.32098800;18.06423600;2024-03-06T12:33:29;1.20;99.90
7598;DHT22;3840;59.32098800;18.06423600;2024-03-06T12:36:05;2.70;99.90
7598;DHT22;3840;59.32098800;18.06423600;2024-03-06T12:38:32;2.70;99.90
7598;DHT22;3840;59.32098800;18.06423600;2024-03-06T12:40:59;2.80;99.90
7598;DHT22;3840;59.32098800;18.06423600;2024-03-06T12:43:26;2.90;99.90
7598;DHT22;3840;59.32098800;18.06423600;2024-03-06T12:45:54;3.30;99.90
7598;DHT22;3840;59.32098800;18.06423600;2024-03-06T12:48:21;2.90;99.90
7598;DHT22;3840;59.32098800;18.06423600;2024-03-06T12:50:47;3.00;99.90
7598;DHT22;3840;59.32098800;18.06423600;2024-03-06T12:53:18;2.90;99.90
7598;DHT22;3840;59.32098800;18.06423600;2024-03-06T12:55:44;3.00;99.90
7598;DHT22;3840;59.32098800;18.06423600;2024-03-06T12:58:12;2.90;99.90
7598;DHT22;3840;59.32098800;18.06423600;2024-03-06T13:00:39;2.90;99.90
7598;DHT22;3840;59.32098800;18.06423600;2024-03-06T13:03:05;2.90;99.90
7598;DHT22;3840;59.32098800;18.06423600;2024-03-06T13:05:31;2.90;99.90
7598;DHT22;3840;59.32098800;18.06423600;2024-03-06T13:07:57;3.00;99.90
7598;DHT22;3840;59.32098800;18.06423600;2024-03-06T13:10:25;3.00;99.90
7598;DHT22;3840;59.32098800;18.06423600;2024-03-06T13:12:51;3.00;99.90
7598;DHT22;3840;59.32098800;18.06423600;2024-03-06T13:15:17;3.00;99.90
7598;DHT22;3840;59.32098800;18.06423600;2024-03-06T13:17:42;3.10;99.90
7598;DHT22;3840;59.32098800;18.06423600;2024-03-06T13:20:08;3.10;99.90
7598;DHT22;3840;59.32098800;18.06423600;2024-03-06T13:22:35;3.10;99.90
7598;DHT22;3840;59.32098800;18.06423600;2024-03-06T13:25:00;3.10;99.90
7598;DHT22;3840;59.32098800;18.06423600;2024-03-06T13:27:26;3.00;99.90
7598;DHT22;3840;59.32098800;18.06423600;2024-03-06T13:29:52;3.10;99.90
7598;DHT22;3840;59.32098800;18.06423600;2024-03-06T13:32:18;3.10;99.90
7598;DHT22;3840;59.32098800;18.06423600;2024-03-06T13:34:44;3.10;99.90
7598;DHT22;3840;59.32098800;18.06423600;2024-03-06T13:37:10;3.20;99.90
7598;DHT22;3840;59.32098800;18.06423600;2024-03-06T13:39:36;3.10;99.90
7598;DHT22;3840;59.32098800;18.06423600;2024-03-06T13:42:02;3.10;99.90
7598;DHT22;3840;59.32098800;18.06423600;2024-03-06T13:44:28;3.10;99.90
7598;DHT22;3840;59.32098800;18.06423600;2024-03-06T13:46:54;3.20;99.90
7598;DHT22;3840;59.32098800;18.06423600;2024-03-06T13:49:39;3.30;99.90
7598;DHT22;3840;59.32098800;18.06423600;2024-03-06T13:52:06;3.30;99.90